sensor_id;sensor_type;location;lat;lon;timestamp;P1;durP1;ratioP1;P2;durP2;ratioP2
68800;SDS011;55784;50.734;7.086;2024-03-08T00:02:23;21.98;;;8.55;;
68800;SDS011;55784;50.734;7.086;2024-03-08T00:04:48;21.63;;;9.07;;
68800;SDS011;55784;50.734;7.086;2024-03-08T00:07:13;20.97;;;9.07;;
68800;SDS011;55784;50.734;7.086;2024-03-08T00:09:39;23.60;;;9.27;;
68800;SDS011;55784;50.734;7.086;2024-03-08T00:12:04;24.23;;;9.00;;
68800;SDS011;55784;50.734;7.086;2024-03-08T00:14:29;24.47;;;9.30;;
68800;SDS011;55784;50.734;7.086;2024-03-08T00:16:55;23.83;;;8.90;;
68800;SDS011;55784;50.734;7.086;2024-03-08T00:19:20;21.87;;;8.67;;
68800;SDS011;55784;50.734;7.086;2024-03-08T00:21:45;20.10;;;8.37;;
68800;SDS011;55784;50.734;7.086;2024-03-08T00:24:11;23.50;;;9.40;;
68800;SDS011;55784;50.734;7.086;2024-03-08T00:26:37;19.83;;;8.67;;
68800;SDS011;55784;50.734;7.086;2024-03-08T00:29:02;21.98;;;8.55;;
68800;SDS011;55784;50.734;7.086;2024-03-08T00:31:28;20.75;;;8.75;;
68800;SDS011;55784;50.734;7.086;2024-03-08T00:33:55;22.23;;;8.75;;
68800;SDS011;55784;50.734;7.086;2024-03-08T00:36:21;21.35;;;8.75;;
68800;SDS011;55784;50.734;7.086;2024-03-08T00:38:47;20.90;;;8.70;;
68800;SDS011;55784;50.734;7.086;2024-03-08T00:41:12;22.37;;;8.97;;
68800;SDS011;55784;50.734;7.086;2024-03-08T00:43:38;20.30;;;8.63;;
68800;SDS011;55784;50.734;7.086;2024-03-08T00:46:03;21.60;;;8.67;;
68800;SDS011;55784;50.734;7.086;2024-03-08T00:48:28;22.38;;;8.82;;
68800;SDS011;55784;50.734;7.086;2024-03-08T00:50:55;23.13;;;8.40;;
68800;SDS011;55784;50.734;7.086;2024-03-08T00:53:20;22.70;;;8.33;;
68800;SDS011;55784;50.734;7.086;2024-03-08T00:55:46;21.67;;;8.30;;
68800;SDS011;55784;50.734;7.086;2024-03-08T00:58:11;22.50;;;8.67;;
68800;SDS011;55784;50.734;7.086;2024-03-08T01:00:37;21.48;;;9.00;;
68800;SDS011;55784;50.734;7.086;2024-03-08T01:03:04;22.27;;;8.85;;
68800;SDS011;55784;50.734;7.086;2024-03-08T01:05:29;23.20;;;8.82;;
68800;SDS011;55784;50.734;7.086;2024-03-08T01:07:55;20.33;;;8.20;;
68800;SDS011;55784;50.734;7.086;2024-03-08T01:10:20;24.27;;;8.93;;
68800;SDS011;55784;50.734;7.086;2024-03-08T01:12:45;21.80;;;8.43;;
68800;SDS011;55784;50.734;7.086;2024-03-08T01:15:11;25.17;;;9.17;;
68800;SDS011;55784;50.734;7.086;2024-03-08T01:17:36;21.17;;;8.20;;
68800;SDS011;55784;50.734;7.086;2024-03-08T01:20:02;22.75;;;8.32;;
68800;SDS011;55784;50.734;7.086;2024-03-08T01:22:29;21.30;;;8.52;;
68800;SDS011;55784;50.734;7.086;2024-03-08T01:24:55;25.03;;;8.73;;
68800;SDS011;55784;50.734;7.086;2024-03-08T01:27:20;23.10;;;8.63;;
68800;SDS011;55784;50.734;7.086;2024-03-08T01:29:46;23.80;;;9.47;;
68800;SDS011;55784;50.734;7.086;2024-03-08T01:32:11;21.63;;;8.37;;
68800;SDS011;55784;50.734;7.086;2024-03-08T01:34:37;24.93;;;9.40;;
68800;SDS011;55784;50.734;7.086;2024-03-08T01:37:02;21.80;;;8.45;;
68800;SDS011;55784;50.734;7.086;2024-03-08T01:39:27;21.13;;;8.10;;
68800;SDS011;55784;50.734;7.086;2024-03-08T01:41:53;19.63;;;7.57;;
68800;SDS011;55784;50.734;7.086;2024-03-08T01:44:19;24.10;;;8.50;;
68800;SDS011;55784;50.734;7.086;2024-03-08T01:46:44;21.67;;;8.32;;
68800;SDS011;55784;50.734;7.086;2024-03-08T01:49:10;22.23;;;8.13;;
68800;SDS011;55784;50.734;7.086;2024-03-08T01:51:37;22.02;;;8.40;;
68800;SDS011;55784;50.734;7.086;2024-03-08T01:54:05;23.33;;;8.95;;
68800;SDS011;55784;50.734;7.086;2024-03-08T01:56:31;20.80;;;8.00;;
68800;SDS011;55784;50.734;7.086;2024-03-08T01:58:57;22.53;;;8.70;;
68800;SDS011;55784;50.734;7.086;2024-03-08T02:01:24;22.23;;;8.25;;
68800;SDS011;55784;50.734;7.086;2024-03-08T02:03:49;23.70;;;8.40;;
68800;SDS011;55784;50.734;7.086;2024-03-08T02:06:15;24.20;;;8.65;;
68800;SDS011;55784;50.734;7.086;2024-03-08T02:08:42;22.73;;;8.95;;
68800;SDS011;55784;50.734;7.086;2024-03-08T02:11:09;23.03;;;8.83;;
68800;SDS011;55784;50.734;7.086;2024-03-08T02:13:34;22.05;;;7.63;;
68800;SDS011;55784;50.734;7.086;2024-03-08T02:16:00;25.27;;;9.10;;
68800;SDS011;55784;50.734;7.086;2024-03-08T02:18:26;25.55;;;8.70;;
68800;SDS011;55784;50.734;7.086;2024-03-08T02:20:53;21.97;;;8.53;;
68800;SDS011;55784;50.734;7.086;2024-03-08T02:23:23;22.67;;;8.57;;
68800;SDS011;55784;50.734;7.086;2024-03-08T02:25:52;24.00;;;8.38;;
68800;SDS011;55784;50.734;7.086;2024-03-08T02:28:18;21.35;;;8.70;;
68800;SDS011;55784;50.734;7.086;2024-03-08T02:30:44;22.03;;;8.40;;
68800;SDS011;55784;50.734;7.086;2024-03-08T02:33:13;22.55;;;8.20;;
68800;SDS011;55784;50.734;7.086;2024-03-08T02:35:41;22.23;;;8.65;;
68800;SDS011;55784;50.734;7.086;2024-03-08T02:38:06;20.70;;;8.33;;
68800;SDS011;55784;50.734;7.086;2024-03-08T02:40:32;21.27;;;8.10;;
68800;SDS011;55784;50.734;7.086;2024-03-08T02:42:57;21.37;;;8.40;;
68800;SDS011;55784;50.734;7.086;2024-03-08T02:45:23;23.08;;;8.55;;
68800;SDS011;55784;50.734;7.086;2024-03-08T02:47:49;23.40;;;8.43;;
68800;SDS011;55784;50.734;7.086;2024-03-08T02:50:15;22.38;;;8.35;;
68800;SDS011;55784;50.734;7.086;2024-03-08T02:52:41;19.25;;;7.72;;
68800;SDS011;55784;50.734;7.086;2024-03-08T02:55:07;23.57;;;8.67;;
68800;SDS011;55784;50.734;7.086;2024-03-08T02:57:33;24.00;;;8.70;;
68800;SDS011;55784;50.734;7.086;2024-03-08T02:59:58;21.23;;;8.30;;
68800;SDS011;55784;50.734;7.086;2024-03-08T03:02:24;22.67;;;8.25;;
68800;SDS011;55784;50.734;7.086;2024-03-08T03:04:51;24.92;;;8.65;;
68800;SDS011;55784;50.734;7.086;2024-03-08T03:07:17;23.40;;;8.50;;
68800;SDS011;55784;50.734;7.086;2024-03-08T03:09:42;21.67;;;7.93;;
68800;SDS011;55784;50.734;7.086;2024-03-08T03:12:07;20.40;;;7.73;;
68800;SDS011;55784;50.734;7.086;2024-03-08T03:14:35;21.77;;;8.10;;
68800;SDS011;55784;50.734;7.086;2024-03-08T03:17:03;23.90;;;8.73;;
68800;SDS011;55784;50.734;7.086;2024-03-08T03:19:29;22.65;;;8.50;;
68800;SDS011;55784;50.734;7.086;2024-03-08T03:21:55;20.07;;;7.33;;
68800;SDS011;55784;50.734;7.086;2024-03-08T03:24:20;25.23;;;8.23;;
68800;SDS011;55784;50.734;7.086;2024-03-08T03:26:46;21.00;;;7.78;;
68800;SDS011;55784;50.734;7.086;2024-03-08T03:29:13;19.80;;;7.93;;
68800;SDS011;55784;50.734;7.086;2024-03-08T03:31:40;21.85;;;8.20;;
68800;SDS011;55784;50.734;7.086;2024-03-08T03:34:06;21.60;;;7.63;;
68800;SDS011;55784;50.734;7.086;2024-03-08T03:36:33;21.95;;;8.10;;
68800;SDS011;55784;50.734;7.086;2024-03-08T03:39:00;24.02;;;8.02;;
68800;SDS011;55784;50.734;7.086;2024-03-08T03:41:41;24.88;;;8.73;;
68800;SDS011;55784;50.734;7.086;2024-03-08T03:44:07;22.70;;;7.93;;
68800;SDS011;55784;50.734;7.086;2024-03-08T03:46:32;21.33;;;8.20;;
68800;SDS011;55784;50.734;7.086;2024-03-08T03:48:58;21.15;;;7.90;;
68800;SDS011;55784;50.734;7.086;2024-03-08T03:51:23;23.43;;;8.20;;
68800;SDS011;55784;50.734;7.086;2024-03-08T03:53:49;20.53;;;7.90;;
68800;SDS011;55784;50.734;7.086;2024-03-08T03:56:14;21.90;;;7.83;;
68800;SDS011;55784;50.734;7.086;2024-03-08T03:58:40;24.80;;;8.10;;
68800;SDS011;55784;50.734;7.086;2024-03-08T04:01:05;21.45;;;7.70;;
68800;SDS011;55784;50.734;7.086;2024-03-08T04:03:30;21.67;;;7.47;;
68800;SDS011;55784;50.734;7.086;2024-03-08T04:05:56;25.87;;;8.87;;
68800;SDS011;55784;50.734;7.086;2024-03-08T04:08:21;21.50;;;8.10;;
68800;SDS011;55784;50.734;7.086;2024-03-08T04:10:48;22.92;;;8.05;;
68800;SDS011;55784;50.734;7.086;2024-03-08T04:13:14;23.63;;;8.10;;
68800;SDS011;55784;50.734;7.086;2024-03-08T04:15:41;22.98;;;8.00;;
68800;SDS011;55784;50.734;7.086;2024-03-08T04:18:09;22.83;;;8.48;;
68800;SDS011;55784;50.734;7.086;2024-03-08T04:20:34;24.83;;;8.83;;
68800;SDS011;55784;50.734;7.086;2024-03-08T04:22:59;23.00;;;8.60;;
68800;SDS011;55784;50.734;7.086;2024-03-08T04:25:25;23.43;;;8.03;;
68800;SDS011;55784;50.734;7.086;2024-03-08T04:27:50;20.90;;;8.10;;
68800;SDS011;55784;50.734;7.086;2024-03-08T04:30:17;25.15;;;8.40;;
68800;SDS011;55784;50.734;7.086;2024-03-08T04:32:42;24.60;;;8.43;;
68800;SDS011;55784;50.734;7.086;2024-03-08T04:35:09;26.48;;;8.70;;
68800;SDS011;55784;50.734;7.086;2024-03-08T04:37:34;22.20;;;7.83;;
68800;SDS011;55784;50.734;7.086;2024-03-08T04:39:59;23.73;;;8.33;;
68800;SDS011;55784;50.734;7.086;2024-03-08T04:42:25;23.15;;;8.02;;
68800;SDS011;55784;50.734;7.086;2024-03-08T04:44:51;21.30;;;7.82;;
68800;SDS011;55784;50.734;7.086;2024-03-08T04:47:18;24.38;;;8.20;;
68800;SDS011;55784;50.734;7.086;2024-03-08T04:49:44;23.23;;;8.30;;
68800;SDS011;55784;50.734;7.086;2024-03-08T04:52:09;24.00;;;7.90;;
68800;SDS011;55784;50.734;7.086;2024-03-08T04:54:34;23.63;;;8.17;;
68800;SDS011;55784;50.734;7.086;2024-03-08T04:57:00;21.17;;;8.07;;
68800;SDS011;55784;50.734;7.086;2024-03-08T04:59:26;22.70;;;7.90;;
68800;SDS011;55784;50.734;7.086;2024-03-08T05:01:52;22.65;;;8.23;;
68800;SDS011;55784;50.734;7.086;2024-03-08T05:04:17;24.73;;;8.53;;
68800;SDS011;55784;50.734;7.086;2024-03-08T05:06:43;22.97;;;8.17;;
68800;SDS011;55784;50.734;7.086;2024-03-08T05:09:08;22.50;;;7.97;;
68800;SDS011;55784;50.734;7.086;2024-03-08T05:11:43;24.20;;;8.70;;
68800;SDS011;55784;50.734;7.086;2024-03-08T05:14:09;21.20;;;8.20;;
68800;SDS011;55784;50.734;7.086;2024-03-08T05:16:35;25.52;;;8.60;;
68800;SDS011;55784;50.734;7.086;2024-03-08T05:19:01;21.83;;;7.97;;
68800;SDS011;55784;50.734;7.086;2024-03-08T05:21:27;24.00;;;8.18;;
68800;SDS011;55784;50.734;7.086;2024-03-08T05:23:53;22.27;;;8.43;;
68800;SDS011;55784;50.734;7.086;2024-03-08T05:26:19;24.90;;;8.67;;
68800;SDS011;55784;50.734;7.086;2024-03-08T05:28:44;25.30;;;8.53;;
68800;SDS011;55784;50.734;7.086;2024-03-08T05:31:09;23.27;;;8.05;;
68800;SDS011;55784;50.734;7.086;2024-03-08T05:33:35;23.65;;;8.20;;
68800;SDS011;55784;50.734;7.086;2024-03-08T05:36:00;22.50;;;7.97;;
68800;SDS011;55784;50.734;7.086;2024-03-08T05:38:27;23.43;;;8.30;;
68800;SDS011;55784;50.734;7.086;2024-03-08T05:40:53;26.95;;;8.65;;
68800;SDS011;55784;50.734;7.086;2024-03-08T05:43:19;24.73;;;8.38;;
68800;SDS011;55784;50.734;7.086;2024-03-08T05:45:45;24.00;;;8.85;;
68800;SDS011;55784;50.734;7.086;2024-03-08T05:48:10;23.85;;;8.02;;
68800;SDS011;55784;50.734;7.086;2024-03-08T05:50:37;24.80;;;8.70;;
68800;SDS011;55784;50.734;7.086;2024-03-08T05:53:03;25.58;;;9.10;;
68800;SDS011;55784;50.734;7.086;2024-03-08T05:55:31;23.80;;;8.48;;
68800;SDS011;55784;50.734;7.086;2024-03-08T05:58:03;24.77;;;8.37;;
68800;SDS011;55784;50.734;7.086;2024-03-08T06:00:28;23.98;;;8.15;;
68800;SDS011;55784;50.734;7.086;2024-03-08T06:02:53;22.50;;;8.27;;
68800;SDS011;55784;50.734;7.086;2024-03-08T06:05:19;23.17;;;8.67;;
68800;SDS011;55784;50.734;7.086;2024-03-08T06:07:44;26.35;;;8.75;;
68800;SDS011;55784;50.734;7.086;2024-03-08T06:10:10;28.63;;;9.00;;
68800;SDS011;55784;50.734;7.086;2024-03-08T06:12:37;26.02;;;8.73;;
68800;SDS011;55784;50.734;7.086;2024-03-08T06:15:09;23.40;;;8.80;;
68800;SDS011;55784;50.734;7.086;2024-03-08T06:17:35;26.48;;;9.00;;
68800;SDS011;55784;50.734;7.086;2024-03-08T06:20:01;25.95;;;8.35;;
68800;SDS011;55784;50.734;7.086;2024-03-08T06:22:28;27.15;;;8.80;;
68800;SDS011;55784;50.734;7.086;2024-03-08T06:24:55;24.10;;;8.48;;
68800;SDS011;55784;50.734;7.086;2024-03-08T06:27:21;24.13;;;8.63;;
68800;SDS011;55784;50.734;7.086;2024-03-08T06:29:46;24.00;;;8.73;;
68800;SDS011;55784;50.734;7.086;2024-03-08T06:32:14;23.60;;;8.23;;
68800;SDS011;55784;50.734;7.086;2024-03-08T06:34:40;25.58;;;9.77;;
68800;SDS011;55784;50.734;7.086;2024-03-08T06:37:06;23.57;;;8.40;;
68800;SDS011;55784;50.734;7.086;2024-03-08T06:39:31;23.73;;;8.63;;
68800;SDS011;55784;50.734;7.086;2024-03-08T06:41:57;24.63;;;8.73;;
68800;SDS011;55784;50.734;7.086;2024-03-08T06:44:22;28.23;;;8.87;;
68800;SDS011;55784;50.734;7.086;2024-03-08T06:46:48;26.47;;;8.47;;
68800;SDS011;55784;50.734;7.086;2024-03-08T06:49:13;26.20;;;8.37;;
68800;SDS011;55784;50.734;7.086;2024-03-08T06:51:40;26.20;;;8.57;;
68800;SDS011;55784;50.734;7.086;2024-03-08T06:54:06;24.37;;;9.13;;
68800;SDS011;55784;50.734;7.086;2024-03-08T06:56:33;24.17;;;8.70;;
68800;SDS011;55784;50.734;7.086;2024-03-08T06:58:59;25.02;;;8.93;;
68800;SDS011;55784;50.734;7.086;2024-03-08T07:01:24;25.50;;;8.93;;
68800;SDS011;55784;50.734;7.086;2024-03-08T07:03:50;23.63;;;8.93;;
68800;SDS011;55784;50.734;7.086;2024-03-08T07:06:17;25.80;;;9.20;;
68800;SDS011;55784;50.734;7.086;2024-03-08T07:08:44;25.63;;;9.32;;
68800;SDS011;55784;50.734;7.086;2024-03-08T07:11:11;24.80;;;9.07;;
68800;SDS011;55784;50.734;7.086;2024-03-08T07:13:36;23.58;;;8.45;;
68800;SDS011;55784;50.734;7.086;2024-03-08T07:16:03;24.42;;;9.13;;
68800;SDS011;55784;50.734;7.086;2024-03-08T07:18:30;26.58;;;9.80;;
68800;SDS011;55784;50.734;7.086;2024-03-08T07:20:56;24.80;;;9.00;;
68800;SDS011;55784;50.734;7.086;2024-03-08T07:23:21;24.60;;;8.73;;
68800;SDS011;55784;50.734;7.086;2024-03-08T07:26:05;24.00;;;8.77;;
68800;SDS011;55784;50.734;7.086;2024-03-08T07:28:31;23.83;;;9.17;;
68800;SDS011;55784;50.734;7.086;2024-03-08T07:30:57;25.70;;;8.93;;
68800;SDS011;55784;50.734;7.086;2024-03-08T07:33:42;27.08;;;8.80;;
68800;SDS011;55784;50.734;7.086;2024-03-08T07:36:07;25.13;;;8.97;;
68800;SDS011;55784;50.734;7.086;2024-03-08T07:38:33;26.95;;;9.40;;
68800;SDS011;55784;50.734;7.086;2024-03-08T07:40:58;25.77;;;9.13;;
68800;SDS011;55784;50.734;7.086;2024-03-08T07:43:25;24.67;;;9.25;;
68800;SDS011;55784;50.734;7.086;2024-03-08T07:45:51;27.03;;;9.27;;
68800;SDS011;55784;50.734;7.086;2024-03-08T07:48:18;25.75;;;9.70;;
68800;SDS011;55784;50.734;7.086;2024-03-08T07:50:43;25.17;;;8.83;;
68800;SDS011;55784;50.734;7.086;2024-03-08T07:53:09;25.00;;;9.40;;
68800;SDS011;55784;50.734;7.086;2024-03-08T07:55:35;25.00;;;9.80;;
68800;SDS011;55784;50.734;7.086;2024-03-08T07:58:01;27.08;;;9.90;;
68800;SDS011;55784;50.734;7.086;2024-03-08T08:00:27;25.40;;;9.10;;
68800;SDS011;55784;50.734;7.086;2024-03-08T08:02:53;22.60;;;8.63;;
68800;SDS011;55784;50.734;7.086;2024-03-08T08:05:19;27.70;;;9.75;;
68800;SDS011;55784;50.734;7.086;2024-03-08T08:07:45;22.52;;;8.68;;
68800;SDS011;55784;50.734;7.086;2024-03-08T08:10:14;23.23;;;8.77;;
68800;SDS011;55784;50.734;7.086;2024-03-08T08:12:43;24.05;;;8.88;;
68800;SDS011;55784;50.734;7.086;2024-03-08T08:15:09;23.58;;;9.38;;
68800;SDS011;55784;50.734;7.086;2024-03-08T08:17:34;24.50;;;9.10;;
68800;SDS011;55784;50.734;7.086;2024-03-08T08:20:00;24.67;;;8.57;;
68800;SDS011;55784;50.734;7.086;2024-03-08T08:22:25;21.92;;;8.88;;
68800;SDS011;55784;50.734;7.086;2024-03-08T08:24:50;23.80;;;9.27;;
68800;SDS011;55784;50.734;7.086;2024-03-08T08:27:17;23.13;;;8.97;;
68800;SDS011;55784;50.734;7.086;2024-03-08T08:29:42;20.77;;;8.20;;
68800;SDS011;55784;50.734;7.086;2024-03-08T08:32:08;21.97;;;8.53;;
68800;SDS011;55784;50.734;7.086;2024-03-08T08:34:33;23.57;;;9.00;;
68800;SDS011;55784;50.734;7.086;2024-03-08T08:36:58;20.53;;;8.33;;
68800;SDS011;55784;50.734;7.086;2024-03-08T08:39:24;22.60;;;8.40;;
68800;SDS011;55784;50.734;7.086;2024-03-08T08:41:50;25.48;;;8.60;;
68800;SDS011;55784;50.734;7.086;2024-03-08T08:44:16;26.87;;;9.23;;
68800;SDS011;55784;50.734;7.086;2024-03-08T08:46:41;22.87;;;8.20;;
68800;SDS011;55784;50.734;7.086;2024-03-08T08:49:07;21.40;;;8.20;;
68800;SDS011;55784;50.734;7.086;2024-03-08T08:51:35;22.75;;;8.82;;
68800;SDS011;55784;50.734;7.086;2024-03-08T08:54:01;20.75;;;8.05;;
68800;SDS011;55784;50.734;7.086;2024-03-08T08:56:27;18.87;;;8.00;;
68800;SDS011;55784;50.734;7.086;2024-03-08T08:58:53;21.20;;;8.38;;
68800;SDS011;55784;50.734;7.086;2024-03-08T09:01:19;22.73;;;9.07;;
68800;SDS011;55784;50.734;7.086;2024-03-08T09:03:45;20.60;;;7.63;;
68800;SDS011;55784;50.734;7.086;2024-03-08T09:06:11;23.95;;;9.10;;
68800;SDS011;55784;50.734;7.086;2024-03-08T09:08:38;20.47;;;8.30;;
68800;SDS011;55784;50.734;7.086;2024-03-08T09:11:03;21.48;;;7.88;;
68800;SDS011;55784;50.734;7.086;2024-03-08T09:13:30;20.20;;;7.80;;
68800;SDS011;55784;50.734;7.086;2024-03-08T09:15:55;25.67;;;8.07;;
68800;SDS011;55784;50.734;7.086;2024-03-08T09:18:21;20.77;;;8.10;;
68800;SDS011;55784;50.734;7.086;2024-03-08T09:20:46;19.75;;;7.90;;
68800;SDS011;55784;50.734;7.086;2024-03-08T09:23:12;22.67;;;8.15;;
68800;SDS011;55784;50.734;7.086;2024-03-08T09:25:37;22.33;;;8.20;;
68800;SDS011;55784;50.734;7.086;2024-03-08T09:28:03;20.67;;;8.60;;
68800;SDS011;55784;50.734;7.086;2024-03-08T09:30:30;21.48;;;8.30;;
68800;SDS011;55784;50.734;7.086;2024-03-08T09:32:56;18.20;;;7.50;;
68800;SDS011;55784;50.734;7.086;2024-03-08T09:35:21;19.20;;;7.97;;
68800;SDS011;55784;50.734;7.086;2024-03-08T09:37:46;18.83;;;7.50;;
68800;SDS011;55784;50.734;7.086;2024-03-08T09:40:15;17.50;;;7.38;;
68800;SDS011;55784;50.734;7.086;2024-03-08T09:42:44;18.87;;;7.27;;
68800;SDS011;55784;50.734;7.086;2024-03-08T09:45:10;17.67;;;7.10;;
68800;SDS011;55784;50.734;7.086;2024-03-08T09:47:37;17.60;;;7.07;;
68800;SDS011;55784;50.734;7.086;2024-03-08T09:50:07;18.80;;;7.15;;
68800;SDS011;55784;50.734;7.086;2024-03-08T09:52:34;19.73;;;7.50;;
68800;SDS011;55784;50.734;7.086;2024-03-08T09:55:07;16.90;;;6.90;;
68800;SDS011;55784;50.734;7.086;2024-03-08T09:57:33;18.67;;;7.18;;
68800;SDS011;55784;50.734;7.086;2024-03-08T10:00:01;17.88;;;6.93;;
68800;SDS011;55784;50.734;7.086;2024-03-08T10:02:31;16.90;;;5.97;;
68800;SDS011;55784;50.734;7.086;2024-03-08T10:04:59;15.53;;;6.43;;
68800;SDS011;55784;50.734;7.086;2024-03-08T10:07:28;17.80;;;6.78;;
68800;SDS011;55784;50.734;7.086;2024-03-08T10:09:53;16.83;;;6.60;;
68800;SDS011;55784;50.734;7.086;2024-03-08T10:12:19;16.43;;;6.53;;
68800;SDS011;55784;50.734;7.086;2024-03-08T10:14:45;14.13;;;5.80;;
68800;SDS011;55784;50.734;7.086;2024-03-08T10:17:32;15.52;;;6.40;;
68800;SDS011;55784;50.734;7.086;2024-03-08T10:19:57;17.30;;;6.23;;
68800;SDS011;55784;50.734;7.086;2024-03-08T10:22:25;18.08;;;7.45;;
68800;SDS011;55784;50.734;7.086;2024-03-08T10:24:50;18.35;;;6.75;;
68800;SDS011;55784;50.734;7.086;2024-03-08T10:27:16;17.87;;;6.43;;
68800;SDS011;55784;50.734;7.086;2024-03-08T10:29:42;15.52;;;6.15;;
68800;SDS011;55784;50.734;7.086;2024-03-08T10:32:09;16.20;;;6.57;;
68800;SDS011;55784;50.734;7.086;2024-03-08T10:34:35;16.63;;;6.65;;
68800;SDS011;55784;50.734;7.086;2024-03-08T10:37:03;16.30;;;6.67;;
68800;SDS011;55784;50.734;7.086;2024-03-08T10:39:30;18.30;;;6.65;;
68800;SDS011;55784;50.734;7.086;2024-03-08T10:42:01;15.48;;;5.88;;
68800;SDS011;55784;50.734;7.086;2024-03-08T10:47:00;15.90;;;6.38;;
68800;SDS011;55784;50.734;7.086;2024-03-08T10:52:10;17.13;;;7.13;;
68800;SDS011;55784;50.734;7.086;2024-03-08T10:54:37;17.50;;;6.88;;
68800;SDS011;55784;50.734;7.086;2024-03-08T10:57:03;15.45;;;6.57;;
68800;SDS011;55784;50.734;7.086;2024-03-08T10:59:31;17.87;;;7.20;;
68800;SDS011;55784;50.734;7.086;2024-03-08T11:01:57;15.63;;;6.70;;
68800;SDS011;55784;50.734;7.086;2024-03-08T11:04:22;16.13;;;6.80;;
68800;SDS011;55784;50.734;7.086;2024-03-08T11:06:48;15.48;;;6.50;;
68800;SDS011;55784;50.734;7.086;2024-03-08T11:09:27;18.48;;;8.63;;
68800;SDS011;55784;50.734;7.086;2024-03-08T11:12:28;16.38;;;6.60;;
68800;SDS011;55784;50.734;7.086;2024-03-08T11:15:01;14.43;;;5.85;;
68800;SDS011;55784;50.734;7.086;2024-03-08T11:19:59;16.47;;;6.30;;
68800;SDS011;55784;50.734;7.086;2024-03-08T11:22:32;15.05;;;6.38;;
68800;SDS011;55784;50.734;7.086;2024-03-08T11:24:59;18.67;;;6.40;;
68800;SDS011;55784;50.734;7.086;2024-03-08T11:27:30;17.52;;;7.07;;
68800;SDS011;55784;50.734;7.086;2024-03-08T11:30:00;14.93;;;6.03;;
68800;SDS011;55784;50.734;7.086;2024-03-08T11:32:35;15.48;;;6.10;;
68800;SDS011;55784;50.734;7.086;2024-03-08T11:35:01;14.07;;;6.30;;
68800;SDS011;55784;50.734;7.086;2024-03-08T11:37:33;14.18;;;6.20;;
68800;SDS011;55784;50.734;7.086;2024-03-08T11:39:59;14.90;;;6.28;;
68800;SDS011;55784;50.734;7.086;2024-03-08T11:42:26;14.77;;;6.10;;
68800;SDS011;55784;50.734;7.086;2024-03-08T11:44:51;13.88;;;5.88;;
68800;SDS011;55784;50.734;7.086;2024-03-08T11:47:18;14.20;;;5.43;;
68800;SDS011;55784;50.734;7.086;2024-03-08T11:49:44;19.13;;;5.47;;
68800;SDS011;55784;50.734;7.086;2024-03-08T11:52:11;15.10;;;5.60;;
68800;SDS011;55784;50.734;7.086;2024-03-08T11:54:43;14.23;;;5.88;;
68800;SDS011;55784;50.734;7.086;2024-03-08T11:57:19;15.47;;;6.20;;
68800;SDS011;55784;50.734;7.086;2024-03-08T11:59:51;15.27;;;6.13;;
68800;SDS011;55784;50.734;7.086;2024-03-08T12:02:16;13.70;;;5.93;;
68800;SDS011;55784;50.734;7.086;2024-03-08T12:04:44;14.43;;;5.78;;
68800;SDS011;55784;50.734;7.086;2024-03-08T12:07:11;14.55;;;6.07;;
68800;SDS011;55784;50.734;7.086;2024-03-08T12:09:38;12.83;;;5.23;;
68800;SDS011;55784;50.734;7.086;2024-03-08T12:12:03;14.45;;;5.75;;
68800;SDS011;55784;50.734;7.086;2024-03-08T12:14:32;16.63;;;5.53;;
68800;SDS011;55784;50.734;7.086;2024-03-08T12:16:58;14.32;;;5.68;;
68800;SDS011;55784;50.734;7.086;2024-03-08T12:19:26;13.80;;;5.40;;
68800;SDS011;55784;50.734;7.086;2024-03-08T12:21:54;12.18;;;5.40;;
68800;SDS011;55784;50.734;7.086;2024-03-08T12:24:21;15.93;;;5.60;;
68800;SDS011;55784;50.734;7.086;2024-03-08T12:26:47;13.10;;;5.53;;
68800;SDS011;55784;50.734;7.086;2024-03-08T12:29:26;15.23;;;6.50;;
68800;SDS011;55784;50.734;7.086;2024-03-08T12:31:53;13.60;;;5.55;;
68800;SDS011;55784;50.734;7.086;2024-03-08T12:34:30;12.55;;;4.97;;
68800;SDS011;55784;50.734;7.086;2024-03-08T12:36:57;19.63;;;7.83;;
68800;SDS011;55784;50.734;7.086;2024-03-08T12:39:23;26.90;;;12.95;;
68800;SDS011;55784;50.734;7.086;2024-03-08T12:41:55;21.77;;;10.32;;
68800;SDS011;55784;50.734;7.086;2024-03-08T12:44:22;18.27;;;7.28;;
68800;SDS011;55784;50.734;7.086;2024-03-08T12:46:47;35.73;;;16.20;;
68800;SDS011;55784;50.734;7.086;2024-03-08T12:49:13;19.67;;;8.95;;
68800;SDS011;55784;50.734;7.086;2024-03-08T12:51:45;60.60;;;28.38;;
68800;SDS011;55784;50.734;7.086;2024-03-08T12:54:11;38.73;;;16.63;;
68800;SDS011;55784;50.734;7.086;2024-03-08T12:56:37;19.75;;;8.70;;
68800;SDS011;55784;50.734;7.086;2024-03-08T12:59:05;23.10;;;9.80;;
68800;SDS011;55784;50.734;7.086;2024-03-08T13:01:38;19.50;;;7.50;;
68800;SDS011;55784;50.734;7.086;2024-03-08T13:04:03;18.37;;;8.00;;
68800;SDS011;55784;50.734;7.086;2024-03-08T13:06:31;14.07;;;6.28;;
68800;SDS011;55784;50.734;7.086;2024-03-08T13:08:56;17.37;;;6.63;;
68800;SDS011;55784;50.734;7.086;2024-03-08T13:11:23;14.10;;;6.05;;
68800;SDS011;55784;50.734;7.086;2024-03-08T13:13:49;12.90;;;5.57;;
68800;SDS011;55784;50.734;7.086;2024-03-08T13:16:15;13.97;;;6.30;;
68800;SDS011;55784;50.734;7.086;2024-03-08T13:18:40;15.23;;;6.70;;
68800;SDS011;55784;50.734;7.086;2024-03-08T13:21:09;13.25;;;5.35;;
68800;SDS011;55784;50.734;7.086;2024-03-08T13:23:39;17.77;;;7.10;;
68800;SDS011;55784;50.734;7.086;2024-03-08T13:26:06;18.02;;;5.82;;
68800;SDS011;55784;50.734;7.086;2024-03-08T13:28:32;15.25;;;6.47;;
68800;SDS011;55784;50.734;7.086;2024-03-08T13:31:06;14.20;;;6.10;;
68800;SDS011;55784;50.734;7.086;2024-03-08T13:33:35;16.38;;;6.35;;
68800;SDS011;55784;50.734;7.086;2024-03-08T13:36:01;14.35;;;5.75;;
68800;SDS011;55784;50.734;7.086;2024-03-08T13:38:31;14.63;;;5.70;;
68800;SDS011;55784;50.734;7.086;2024-03-08T13:40:58;13.57;;;5.57;;
68800;SDS011;55784;50.734;7.086;2024-03-08T13:43:23;12.50;;;5.00;;
68800;SDS011;55784;50.734;7.086;2024-03-08T13:45:49;12.88;;;5.30;;
68800;SDS011;55784;50.734;7.086;2024-03-08T13:48:14;12.07;;;5.20;;
68800;SDS011;55784;50.734;7.086;2024-03-08T13:50:41;12.60;;;5.28;;
68800;SDS011;55784;50.734;7.086;2024-03-08T13:53:06;12.73;;;5.60;;
68800;SDS011;55784;50.734;7.086;2024-03-08T13:55:32;13.68;;;5.85;;
68800;SDS011;55784;50.734;7.086;2024-03-08T13:57:58;12.32;;;5.85;;
68800;SDS011;55784;50.734;7.086;2024-03-08T14:00:24;17.80;;;7.30;;
68800;SDS011;55784;50.734;7.086;2024-03-08T14:02:52;16.73;;;6.60;;
68800;SDS011;55784;50.734;7.086;2024-03-08T14:05:18;17.95;;;7.88;;
68800;SDS011;55784;50.734;7.086;2024-03-08T14:07:46;18.50;;;7.60;;
68800;SDS011;55784;50.734;7.086;2024-03-08T14:10:14;15.55;;;6.47;;
68800;SDS011;55784;50.734;7.086;2024-03-08T14:12:40;14.35;;;5.97;;
68800;SDS011;55784;50.734;7.086;2024-03-08T14:15:07;15.25;;;6.60;;
68800;SDS011;55784;50.734;7.086;2024-03-08T14:17:33;15.70;;;6.80;;
68800;SDS011;55784;50.734;7.086;2024-03-08T14:19:59;15.10;;;5.70;;
68800;SDS011;55784;50.734;7.086;2024-03-08T14:22:24;14.53;;;5.90;;
68800;SDS011;55784;50.734;7.086;2024-03-08T14:24:49;14.07;;;5.53;;
68800;SDS011;55784;50.734;7.086;2024-03-08T14:27:16;13.18;;;5.68;;
68800;SDS011;55784;50.734;7.086;2024-03-08T14:29:43;13.52;;;5.47;;
68800;SDS011;55784;50.734;7.086;2024-03-08T14:32:09;12.83;;;5.47;;
68800;SDS011;55784;50.734;7.086;2024-03-08T14:34:35;14.23;;;5.72;;
68800;SDS011;55784;50.734;7.086;2024-03-08T14:37:00;15.50;;;6.43;;
68800;SDS011;55784;50.734;7.086;2024-03-08T14:39:29;14.10;;;5.50;;